sensor_id;sensor_type;location;lat;lon;timestamp;P1;durP1;ratioP1;P2;durP2;ratioP2
46551;SDS011;32278;51.810;4.712;2023-07-29T00:02:19;5.15;;;2.10;;
46551;SDS011;32278;51.810;4.712;2023-07-29T00:04:45;4.65;;;2.10;;
46551;SDS011;32278;51.810;4.712;2023-07-29T00:07:11;5.57;;;2.70;;
46551;SDS011;32278;51.810;4.712;2023-07-29T00:09:37;7.32;;;2.47;;
46551;SDS011;32278;51.810;4.712;2023-07-29T00:12:03;8.20;;;2.53;;
46551;SDS011;32278;51.810;4.712;2023-07-29T00:14:29;8.35;;;2.80;;
46551;SDS011;32278;51.810;4.712;2023-07-29T00:16:55;4.57;;;3.20;;
46551;SDS011;32278;51.810;4.712;2023-07-29T00:19:21;5.57;;;2.00;;
46551;SDS011;32278;51.810;4.712;2023-07-29T00:21:48;7.50;;;2.58;;
46551;SDS011;32278;51.810;4.712;2023-07-29T00:24:14;6.90;;;2.50;;
46551;SDS011;32278;51.810;4.712;2023-07-29T00:26:40;6.63;;;3.35;;
46551;SDS011;32278;51.810;4.712;2023-07-29T00:29:06;6.68;;;2.15;;
46551;SDS011;32278;51.810;4.712;2023-07-29T00:31:32;5.30;;;2.60;;
46551;SDS011;32278;51.810;4.712;2023-07-29T00:33:58;6.50;;;2.85;;
46551;SDS011;32278;51.810;4.712;2023-07-29T00:36:24;8.02;;;3.17;;
46551;SDS011;32278;51.810;4.712;2023-07-29T00:38:50;3.42;;;2.50;;
46551;SDS011;32278;51.810;4.712;2023-07-29T00:41:18;7.35;;;3.47;;
46551;SDS011;32278;51.810;4.712;2023-07-29T00:43:44;6.35;;;3.10;;
46551;SDS011;32278;51.810;4.712;2023-07-29T00:46:10;10.00;;;3.38;;
46551;SDS011;32278;51.810;4.712;2023-07-29T00:48:37;9.30;;;4.25;;
46551;SDS011;32278;51.810;4.712;2023-07-29T00:51:04;7.97;;;3.08;;
46551;SDS011;32278;51.810;4.712;2023-07-29T00:53:30;5.57;;;2.70;;
46551;SDS011;32278;51.810;4.712;2023-07-29T00:55:57;5.43;;;2.60;;
46551;SDS011;32278;51.810;4.712;2023-07-29T00:58:22;5.05;;;2.63;;
46551;SDS011;32278;51.810;4.712;2023-07-29T01:00:48;4.90;;;2.72;;
46551;SDS011;32278;51.810;4.712;2023-07-29T01:03:15;4.70;;;2.75;;
46551;SDS011;32278;51.810;4.712;2023-07-29T01:05:50;6.97;;;2.63;;
46551;SDS011;32278;51.810;4.712;2023-07-29T01:08:25;6.03;;;2.83;;
46551;SDS011;32278;51.810;4.712;2023-07-29T01:10:58;3.10;;;2.40;;
46551;SDS011;32278;51.810;4.712;2023-07-29T01:16:14;8.18;;;2.67;;
46551;SDS011;32278;51.810;4.712;2023-07-29T01:18:42;2.47;;;2.03;;
46551;SDS011;32278;51.810;4.712;2023-07-29T01:21:09;5.00;;;2.35;;
46551;SDS011;32278;51.810;4.712;2023-07-29T01:23:36;3.50;;;2.40;;
46551;SDS011;32278;51.810;4.712;2023-07-29T01:26:03;2.42;;;2.03;;
46551;SDS011;32278;51.810;4.712;2023-07-29T01:28:29;5.03;;;2.08;;
46551;SDS011;32278;51.810;4.712;2023-07-29T01:31:01;3.15;;;1.55;;
46551;SDS011;32278;51.810;4.712;2023-07-29T01:35:58;4.35;;;1.63;;
46551;SDS011;32278;51.810;4.712;2023-07-29T01:38:32;3.55;;;1.85;;
46551;SDS011;32278;51.810;4.712;2023-07-29T01:41:03;2.78;;;1.60;;
46551;SDS011;32278;51.810;4.712;2023-07-29T01:43:29;1.95;;;1.63;;
46551;SDS011;32278;51.810;4.712;2023-07-29T01:45:56;2.95;;;1.90;;
46551;SDS011;32278;51.810;4.712;2023-07-29T01:48:22;2.75;;;1.80;;
46551;SDS011;32278;51.810;4.712;2023-07-29T01:50:48;3.17;;;1.92;;
46551;SDS011;32278;51.810;4.712;2023-07-29T01:53:14;2.92;;;1.73;;
46551;SDS011;32278;51.810;4.712;2023-07-29T01:55:40;4.45;;;1.85;;
46551;SDS011;32278;51.810;4.712;2023-07-29T01:58:06;4.03;;;2.35;;
46551;SDS011;32278;51.810;4.712;2023-07-29T02:00:32;2.50;;;1.70;;
46551;SDS011;32278;51.810;4.712;2023-07-29T02:02:58;3.88;;;2.28;;
46551;SDS011;32278;51.810;4.712;2023-07-29T02:05:24;3.45;;;1.90;;
46551;SDS011;32278;51.810;4.712;2023-07-29T02:07:50;3.42;;;2.10;;
46551;SDS011;32278;51.810;4.712;2023-07-29T02:10:16;3.13;;;2.00;;
46551;SDS011;32278;51.810;4.712;2023-07-29T02:12:42;2.92;;;2.15;;
46551;SDS011;32278;51.810;4.712;2023-07-29T02:15:08;3.30;;;1.73;;
46551;SDS011;32278;51.810;4.712;2023-07-29T02:17:34;6.95;;;1.77;;
46551;SDS011;32278;51.810;4.712;2023-07-29T02:20:00;2.05;;;1.65;;
46551;SDS011;32278;51.810;4.712;2023-07-29T02:22:26;1.77;;;1.55;;
46551;SDS011;32278;51.810;4.712;2023-07-29T02:24:52;7.25;;;1.92;;
46551;SDS011;32278;51.810;4.712;2023-07-29T02:27:18;3.03;;;1.67;;
46551;SDS011;32278;51.810;4.712;2023-07-29T02:29:44;4.47;;;1.65;;
46551;SDS011;32278;51.810;4.712;2023-07-29T02:32:10;2.63;;;1.60;;
46551;SDS011;32278;51.810;4.712;2023-07-29T02:34:36;2.72;;;1.60;;
46551;SDS011;32278;51.810;4.712;2023-07-29T02:37:02;2.20;;;1.80;;
46551;SDS011;32278;51.810;4.712;2023-07-29T02:39:28;3.42;;;1.88;;
46551;SDS011;32278;51.810;4.712;2023-07-29T02:41:54;2.30;;;2.05;;
46551;SDS011;32278;51.810;4.712;2023-07-29T02:44:21;2.35;;;1.40;;
46551;SDS011;32278;51.810;4.712;2023-07-29T02:46:46;2.83;;;1.92;;
46551;SDS011;32278;51.810;4.712;2023-07-29T02:49:12;2.85;;;1.42;;
46551;SDS011;32278;51.810;4.712;2023-07-29T02:51:38;2.15;;;1.70;;
46551;SDS011;32278;51.810;4.712;2023-07-29T02:54:04;2.30;;;1.73;;
46551;SDS011;32278;51.810;4.712;2023-07-29T02:56:30;5.03;;;1.85;;
46551;SDS011;32278;51.810;4.712;2023-07-29T02:58:56;3.75;;;1.55;;
46551;SDS011;32278;51.810;4.712;2023-07-29T03:01:22;3.13;;;1.90;;
46551;SDS011;32278;51.810;4.712;2023-07-29T03:03:50;3.92;;;1.60;;
46551;SDS011;32278;51.810;4.712;2023-07-29T03:06:16;2.10;;;1.70;;
46551;SDS011;32278;51.810;4.712;2023-07-29T03:08:42;2.65;;;1.80;;
46551;SDS011;32278;51.810;4.712;2023-07-29T03:11:12;3.45;;;1.83;;
46551;SDS011;32278;51.810;4.712;2023-07-29T03:13:38;4.10;;;2.05;;
46551;SDS011;32278;51.810;4.712;2023-07-29T03:16:07;3.60;;;1.65;;
46551;SDS011;32278;51.810;4.712;2023-07-29T03:18:33;3.00;;;2.03;;
46551;SDS011;32278;51.810;4.712;2023-07-29T03:21:00;3.25;;;2.33;;
46551;SDS011;32278;51.810;4.712;2023-07-29T03:23:27;4.10;;;2.22;;
46551;SDS011;32278;51.810;4.712;2023-07-29T03:25:54;5.15;;;2.65;;
46551;SDS011;32278;51.810;4.712;2023-07-29T03:28:31;2.05;;;1.85;;
46551;SDS011;32278;51.810;4.712;2023-07-29T03:30:57;2.70;;;1.98;;
46551;SDS011;32278;51.810;4.712;2023-07-29T03:33:24;4.05;;;2.40;;
46551;SDS011;32278;51.810;4.712;2023-07-29T03:35:50;4.60;;;2.42;;
46551;SDS011;32278;51.810;4.712;2023-07-29T03:38:16;3.83;;;2.30;;
46551;SDS011;32278;51.810;4.712;2023-07-29T03:40:43;6.53;;;2.80;;
46551;SDS011;32278;51.810;4.712;2023-07-29T03:43:09;5.10;;;2.60;;
46551;SDS011;32278;51.810;4.712;2023-07-29T03:45:35;5.65;;;3.15;;
46551;SDS011;32278;51.810;4.712;2023-07-29T03:48:02;4.82;;;2.90;;
46551;SDS011;32278;51.810;4.712;2023-07-29T03:50:28;5.80;;;2.63;;
46551;SDS011;32278;51.810;4.712;2023-07-29T03:52:54;3.65;;;2.70;;
46551;SDS011;32278;51.810;4.712;2023-07-29T03:55:20;3.75;;;3.00;;
46551;SDS011;32278;51.810;4.712;2023-07-29T03:57:46;6.93;;;3.33;;
46551;SDS011;32278;51.810;4.712;2023-07-29T04:00:12;5.43;;;3.47;;
46551;SDS011;32278;51.810;4.712;2023-07-29T04:02:38;3.55;;;2.80;;
46551;SDS011;32278;51.810;4.712;2023-07-29T04:05:05;8.15;;;2.97;;
46551;SDS011;32278;51.810;4.712;2023-07-29T04:07:34;6.22;;;3.17;;
46551;SDS011;32278;51.810;4.712;2023-07-29T04:10:00;6.53;;;2.72;;
46551;SDS011;32278;51.810;4.712;2023-07-29T04:12:26;8.35;;;3.30;;
46551;SDS011;32278;51.810;4.712;2023-07-29T04:14:52;4.53;;;3.13;;
46551;SDS011;32278;51.810;4.712;2023-07-29T04:17:18;4.32;;;2.42;;
46551;SDS011;32278;51.810;4.712;2023-07-29T04:19:44;6.22;;;3.38;;
46551;SDS011;32278;51.810;4.712;2023-07-29T04:22:10;6.97;;;3.33;;
46551;SDS011;32278;51.810;4.712;2023-07-29T04:24:37;6.88;;;2.92;;
46551;SDS011;32278;51.810;4.712;2023-07-29T04:27:03;7.60;;;3.17;;
46551;SDS011;32278;51.810;4.712;2023-07-29T04:29:29;6.70;;;3.72;;
46551;SDS011;32278;51.810;4.712;2023-07-29T04:31:55;6.60;;;3.25;;
46551;SDS011;32278;51.810;4.712;2023-07-29T04:34:21;5.40;;;3.40;;
46551;SDS011;32278;51.810;4.712;2023-07-29T04:36:47;5.35;;;3.35;;
46551;SDS011;32278;51.810;4.712;2023-07-29T04:39:13;7.38;;;3.38;;
46551;SDS011;32278;51.810;4.712;2023-07-29T04:41:39;10.27;;;3.38;;
46551;SDS011;32278;51.810;4.712;2023-07-29T04:44:05;6.20;;;3.35;;
46551;SDS011;32278;51.810;4.712;2023-07-29T04:46:32;5.60;;;3.70;;
46551;SDS011;32278;51.810;4.712;2023-07-29T04:48:58;8.85;;;3.63;;
46551;SDS011;32278;51.810;4.712;2023-07-29T04:51:24;4.47;;;3.47;;
46551;SDS011;32278;51.810;4.712;2023-07-29T04:53:50;6.80;;;4.10;;
46551;SDS011;32278;51.810;4.712;2023-07-29T04:56:16;5.95;;;3.30;;
46551;SDS011;32278;51.810;4.712;2023-07-29T04:58:42;8.48;;;3.60;;
46551;SDS011;32278;51.810;4.712;2023-07-29T05:01:08;7.45;;;4.07;;
46551;SDS011;32278;51.810;4.712;2023-07-29T05:03:34;5.63;;;4.13;;
46551;SDS011;32278;51.810;4.712;2023-07-29T05:06:00;9.07;;;4.30;;
46551;SDS011;32278;51.810;4.712;2023-07-29T05:08:26;6.22;;;4.10;;
46551;SDS011;32278;51.810;4.712;2023-07-29T05:10:52;11.15;;;5.00;;
46551;SDS011;32278;51.810;4.712;2023-07-29T05:13:22;6.25;;;3.97;;
46551;SDS011;32278;51.810;4.712;2023-07-29T05:15:48;9.68;;;4.35;;
46551;SDS011;32278;51.810;4.712;2023-07-29T05:18:14;5.80;;;3.88;;
46551;SDS011;32278;51.810;4.712;2023-07-29T05:20:40;6.80;;;3.42;;
46551;SDS011;32278;51.810;4.712;2023-07-29T05:23:06;5.97;;;3.83;;
46551;SDS011;32278;51.810;4.712;2023-07-29T05:25:32;9.57;;;3.80;;
46551;SDS011;32278;51.810;4.712;2023-07-29T05:28:00;10.85;;;4.28;;
46551;SDS011;32278;51.810;4.712;2023-07-29T05:30:26;6.72;;;4.30;;
46551;SDS011;32278;51.810;4.712;2023-07-29T05:32:55;10.57;;;4.85;;
46551;SDS011;32278;51.810;4.712;2023-07-29T05:35:21;8.85;;;4.47;;
46551;SDS011;32278;51.810;4.712;2023-07-29T05:37:47;7.30;;;4.00;;
46551;SDS011;32278;51.810;4.712;2023-07-29T05:40:14;7.18;;;4.15;;
46551;SDS011;32278;51.810;4.712;2023-07-29T05:42:40;11.38;;;4.50;;
46551;SDS011;32278;51.810;4.712;2023-07-29T05:45:06;6.28;;;4.20;;
46551;SDS011;32278;51.810;4.712;2023-07-29T05:47:33;6.60;;;3.92;;
46551;SDS011;32278;51.810;4.712;2023-07-29T05:49:59;8.90;;;4.25;;
46551;SDS011;32278;51.810;4.712;2023-07-29T05:52:29;7.82;;;4.13;;
46551;SDS011;32278;51.810;4.712;2023-07-29T05:54:55;7.68;;;4.35;;
46551;SDS011;32278;51.810;4.712;2023-07-29T05:57:21;8.50;;;4.35;;
46551;SDS011;32278;51.810;4.712;2023-07-29T05:59:47;6.25;;;4.50;;
46551;SDS011;32278;51.810;4.712;2023-07-29T06:02:13;8.32;;;4.60;;
46551;SDS011;32278;51.810;4.712;2023-07-29T06:04:39;7.38;;;4.15;;
46551;SDS011;32278;51.810;4.712;2023-07-29T06:07:05;5.90;;;4.82;;
46551;SDS011;32278;51.810;4.712;2023-07-29T06:09:31;8.45;;;4.88;;
46551;SDS011;32278;51.810;4.712;2023-07-29T06:11:57;7.53;;;4.13;;
46551;SDS011;32278;51.810;4.712;2023-07-29T06:14:23;9.38;;;4.75;;
46551;SDS011;32278;51.810;4.712;2023-07-29T06:16:49;7.60;;;4.88;;
46551;SDS011;32278;51.810;4.712;2023-07-29T06:19:15;9.10;;;4.22;;
46551;SDS011;32278;51.810;4.712;2023-07-29T06:21:41;5.63;;;4.65;;
46551;SDS011;32278;51.810;4.712;2023-07-29T06:24:07;8.25;;;3.70;;
46551;SDS011;32278;51.810;4.712;2023-07-29T06:26:33;11.57;;;4.43;;
46551;SDS011;32278;51.810;4.712;2023-07-29T06:28:59;5.22;;;3.90;;
46551;SDS011;32278;51.810;4.712;2023-07-29T06:31:25;5.22;;;3.90;;
46551;SDS011;32278;51.810;4.712;2023-07-29T06:33:51;5.75;;;4.03;;
46551;SDS011;32278;51.810;4.712;2023-07-29T06:36:17;5.38;;;4.05;;
46551;SDS011;32278;51.810;4.712;2023-07-29T06:38:43;9.60;;;5.15;;
46551;SDS011;32278;51.810;4.712;2023-07-29T06:41:09;6.65;;;3.92;;
46551;SDS011;32278;51.810;4.712;2023-07-29T06:43:35;6.10;;;4.53;;
46551;SDS011;32278;51.810;4.712;2023-07-29T06:46:01;9.32;;;4.20;;
46551;SDS011;32278;51.810;4.712;2023-07-29T06:48:27;11.63;;;4.00;;
46551;SDS011;32278;51.810;4.712;2023-07-29T06:50:53;7.38;;;3.70;;
46551;SDS011;32278;51.810;4.712;2023-07-29T06:53:20;5.40;;;3.42;;
46551;SDS011;32278;51.810;4.712;2023-07-29T06:55:46;5.30;;;3.47;;
46551;SDS011;32278;51.810;4.712;2023-07-29T06:58:12;7.60;;;3.58;;
46551;SDS011;32278;51.810;4.712;2023-07-29T07:00:38;8.50;;;4.30;;
46551;SDS011;32278;51.810;4.712;2023-07-29T07:03:04;5.47;;;3.08;;
46551;SDS011;32278;51.810;4.712;2023-07-29T07:05:30;5.13;;;2.88;;
46551;SDS011;32278;51.810;4.712;2023-07-29T07:07:56;4.57;;;3.15;;
46551;SDS011;32278;51.810;4.712;2023-07-29T07:10:22;7.00;;;3.10;;
46551;SDS011;32278;51.810;4.712;2023-07-29T07:12:48;9.18;;;3.42;;
46551;SDS011;32278;51.810;4.712;2023-07-29T07:15:14;5.57;;;2.92;;
46551;SDS011;32278;51.810;4.712;2023-07-29T07:17:39;6.85;;;3.00;;
46551;SDS011;32278;51.810;4.712;2023-07-29T07:20:06;6.38;;;2.90;;
46551;SDS011;32278;51.810;4.712;2023-07-29T07:22:32;10.10;;;4.20;;
46551;SDS011;32278;51.810;4.712;2023-07-29T07:24:58;5.57;;;4.22;;
46551;SDS011;32278;51.810;4.712;2023-07-29T07:27:24;7.57;;;4.80;;
46551;SDS011;32278;51.810;4.712;2023-07-29T07:29:50;8.55;;;4.25;;
46551;SDS011;32278;51.810;4.712;2023-07-29T07:32:16;6.75;;;4.13;;
46551;SDS011;32278;51.810;4.712;2023-07-29T07:34:42;6.88;;;4.55;;
46551;SDS011;32278;51.810;4.712;2023-07-29T07:37:08;10.35;;;4.85;;
46551;SDS011;32278;51.810;4.712;2023-07-29T07:39:34;6.13;;;4.40;;
46551;SDS011;32278;51.810;4.712;2023-07-29T07:42:00;5.45;;;4.35;;
46551;SDS011;32278;51.810;4.712;2023-07-29T07:44:26;6.03;;;3.90;;
46551;SDS011;32278;51.810;4.712;2023-07-29T07:46:52;6.00;;;4.07;;
46551;SDS011;32278;51.810;4.712;2023-07-29T07:49:18;6.13;;;3.85;;
46551;SDS011;32278;51.810;4.712;2023-07-29T07:51:44;6.05;;;3.72;;
46551;SDS011;32278;51.810;4.712;2023-07-29T07:54:10;4.30;;;3.90;;
46551;SDS011;32278;51.810;4.712;2023-07-29T07:56:36;6.55;;;4.10;;
46551;SDS011;32278;51.810;4.712;2023-07-29T07:59:02;5.25;;;3.85;;
46551;SDS011;32278;51.810;4.712;2023-07-29T08:01:33;6.35;;;3.92;;
46551;SDS011;32278;51.810;4.712;2023-07-29T08:04:00;10.45;;;3.75;;
46551;SDS011;32278;51.810;4.712;2023-07-29T08:06:26;6.63;;;3.67;;
46551;SDS011;32278;51.810;4.712;2023-07-29T08:08:52;4.15;;;3.30;;
46551;SDS011;32278;51.810;4.712;2023-07-29T08:11:18;5.97;;;3.63;;
46551;SDS011;32278;51.810;4.712;2023-07-29T08:13:44;5.25;;;3.70;;
46551;SDS011;32278;51.810;4.712;2023-07-29T08:16:10;5.47;;;3.30;;
46551;SDS011;32278;51.810;4.712;2023-07-29T08:18:36;4.70;;;3.13;;
46551;SDS011;32278;51.810;4.712;2023-07-29T08:21:02;5.05;;;3.85;;
46551;SDS011;32278;51.810;4.712;2023-07-29T08:23:29;18.23;;;3.55;;
46551;SDS011;32278;51.810;4.712;2023-07-29T08:25:57;10.40;;;3.33;;
46551;SDS011;32278;51.810;4.712;2023-07-29T08:28:26;5.28;;;3.33;;
46551;SDS011;32278;51.810;4.712;2023-07-29T08:30:52;3.83;;;3.08;;
46551;SDS011;32278;51.810;4.712;2023-07-29T08:33:18;3.55;;;3.13;;
46551;SDS011;32278;51.810;4.712;2023-07-29T08:35:44;3.20;;;2.90;;
46551;SDS011;32278;51.810;4.712;2023-07-29T08:38:10;4.32;;;2.70;;
46551;SDS011;32278;51.810;4.712;2023-07-29T08:40:37;6.70;;;2.80;;
46551;SDS011;32278;51.810;4.712;2023-07-29T08:43:04;6.38;;;3.35;;
46551;SDS011;32278;51.810;4.712;2023-07-29T08:45:32;3.30;;;2.03;;
46551;SDS011;32278;51.810;4.712;2023-07-29T08:48:00;3.90;;;2.40;;
46551;SDS011;32278;51.810;4.712;2023-07-29T08:50:28;2.92;;;2.28;;
46551;SDS011;32278;51.810;4.712;2023-07-29T08:52:55;3.95;;;1.90;;
46551;SDS011;32278;51.810;4.712;2023-07-29T08:55:21;6.53;;;2.67;;
46551;SDS011;32278;51.810;4.712;2023-07-29T08:57:47;5.43;;;2.35;;
46551;SDS011;32278;51.810;4.712;2023-07-29T09:00:14;5.13;;;2.13;;
46551;SDS011;32278;51.810;4.712;2023-07-29T09:02:40;2.85;;;2.13;;
46551;SDS011;32278;51.810;4.712;2023-07-29T09:05:06;2.70;;;2.13;;
46551;SDS011;32278;51.810;4.712;2023-07-29T09:07:32;3.10;;;2.33;;
46551;SDS011;32278;51.810;4.712;2023-07-29T09:10:00;2.65;;;2.05;;
46551;SDS011;32278;51.810;4.712;2023-07-29T09:12:25;3.00;;;2.30;;
46551;SDS011;32278;51.810;4.712;2023-07-29T09:14:52;3.63;;;2.20;;
46551;SDS011;32278;51.810;4.712;2023-07-29T09:17:19;3.42;;;2.50;;
46551;SDS011;32278;51.810;4.712;2023-07-29T09:19:50;6.00;;;2.50;;
46551;SDS011;32278;51.810;4.712;2023-07-29T09:22:19;5.18;;;3.13;;
46551;SDS011;32278;51.810;4.712;2023-07-29T09:24:45;2.95;;;2.65;;
46551;SDS011;32278;51.810;4.712;2023-07-29T09:27:27;3.13;;;2.83;;
46551;SDS011;32278;51.810;4.712;2023-07-29T09:29:53;2.77;;;2.57;;
46551;SDS011;32278;51.810;4.712;2023-07-29T09:32:20;3.83;;;2.40;;
46551;SDS011;32278;51.810;4.712;2023-07-29T09:34:46;3.63;;;2.67;;
46551;SDS011;32278;51.810;4.712;2023-07-29T09:37:31;4.72;;;3.00;;
46551;SDS011;32278;51.810;4.712;2023-07-29T09:39:57;3.88;;;2.45;;
46551;SDS011;32278;51.810;4.712;2023-07-29T09:42:23;3.13;;;2.15;;
46551;SDS011;32278;51.810;4.712;2023-07-29T09:44:49;1.90;;;1.77;;
46551;SDS011;32278;51.810;4.712;2023-07-29T09:47:19;2.65;;;2.22;;
46551;SDS011;32278;51.810;4.712;2023-07-29T09:49:46;1.80;;;1.52;;
46551;SDS011;32278;51.810;4.712;2023-07-29T09:52:13;3.83;;;1.60;;
46551;SDS011;32278;51.810;4.712;2023-07-29T09:54:39;1.58;;;1.38;;
46551;SDS011;32278;51.810;4.712;2023-07-29T09:57:06;1.90;;;1.65;;
46551;SDS011;32278;51.810;4.712;2023-07-29T09:59:35;2.65;;;1.48;;
46551;SDS011;32278;51.810;4.712;2023-07-29T10:02:01;5.47;;;1.35;;
46551;SDS011;32278;51.810;4.712;2023-07-29T10:04:27;3.25;;;1.40;;
46551;SDS011;32278;51.810;4.712;2023-07-29T10:06:54;3.13;;;1.45;;
46551;SDS011;32278;51.810;4.712;2023-07-29T10:09:20;2.42;;;1.35;;
46551;SDS011;32278;51.810;4.712;2023-07-29T10:11:47;1.27;;;1.23;;
46551;SDS011;32278;51.810;4.712;2023-07-29T10:14:14;1.88;;;1.40;;
46551;SDS011;32278;51.810;4.712;2023-07-29T10:16:41;2.00;;;1.60;;
46551;SDS011;32278;51.810;4.712;2023-07-29T10:19:10;3.78;;;1.67;;
46551;SDS011;32278;51.810;4.712;2023-07-29T10:21:38;1.58;;;1.48;;
46551;SDS011;32278;51.810;4.712;2023-07-29T10:24:06;1.90;;;1.10;;
46551;SDS011;32278;51.810;4.712;2023-07-29T10:26:33;2.38;;;1.20;;
46551;SDS011;32278;51.810;4.712;2023-07-29T10:29:01;3.15;;;1.52;;
46551;SDS011;32278;51.810;4.712;2023-07-29T10:31:29;1.45;;;1.33;;
46551;SDS011;32278;51.810;4.712;2023-07-29T10:33:55;1.98;;;1.40;;
46551;SDS011;32278;51.810;4.712;2023-07-29T10:36:21;1.67;;;1.40;;
46551;SDS011;32278;51.810;4.712;2023-07-29T10:38:47;1.60;;;1.50;;
46551;SDS011;32278;51.810;4.712;2023-07-29T10:41:13;1.90;;;1.52;;
46551;SDS011;32278;51.810;4.712;2023-07-29T10:43:39;1.83;;;1.52;;
46551;SDS011;32278;51.810;4.712;2023-07-29T10:46:15;7.88;;;2.13;;
46551;SDS011;32278;51.810;4.712;2023-07-29T10:53:52;4.25;;;2.33;;
46551;SDS011;32278;51.810;4.712;2023-07-29T10:56:26;3.20;;;2.50;;
46551;SDS011;32278;51.810;4.712;2023-07-29T10:58:52;4.18;;;2.28;;
46551;SDS011;32278;51.810;4.712;2023-07-29T11:01:28;6.88;;;3.05;;
46551;SDS011;32278;51.810;4.712;2023-07-29T11:04:01;4.05;;;2.40;;
46551;SDS011;32278;51.810;4.712;2023-07-29T11:06:27;5.60;;;2.17;;
46551;SDS011;32278;51.810;4.712;2023-07-29T11:08:53;4.55;;;2.95;;
46551;SDS011;32278;51.810;4.712;2023-07-29T11:11:19;7.15;;;2.90;;
46551;SDS011;32278;51.810;4.712;2023-07-29T11:13:45;4.75;;;2.97;;
46551;SDS011;32278;51.810;4.712;2023-07-29T11:16:11;3.00;;;2.67;;
46551;SDS011;32278;51.810;4.712;2023-07-29T11:18:40;6.10;;;2.75;;
46551;SDS011;32278;51.810;4.712;2023-07-29T11:21:07;5.47;;;2.53;;
46551;SDS011;32278;51.810;4.712;2023-07-29T11:23:34;3.33;;;2.08;;
46551;SDS011;32278;51.810;4.712;2023-07-29T11:26:00;5.68;;;2.47;;
46551;SDS011;32278;51.810;4.712;2023-07-29T11:28:27;4.13;;;2.20;;
46551;SDS011;32278;51.810;4.712;2023-07-29T11:30:54;2.80;;;2.58;;
46551;SDS011;32278;51.810;4.712;2023-07-29T11:33:24;3.92;;;1.95;;
46551;SDS011;32278;51.810;4.712;2023-07-29T11:35:50;2.65;;;2.45;;
46551;SDS011;32278;51.810;4.712;2023-07-29T11:38:19;4.15;;;3.50;;
46551;SDS011;32278;51.810;4.712;2023-07-29T11:43:40;4.07;;;3.17;;
46551;SDS011;32278;51.810;4.712;2023-07-29T11:46:06;2.67;;;2.45;;
46551;SDS011;32278;51.810;4.712;2023-07-29T11:48:32;1.90;;;1.80;;
46551;SDS011;32278;51.810;4.712;2023-07-29T11:50:59;3.90;;;2.05;;
46551;SDS011;32278;51.810;4.712;2023-07-29T11:53:26;2.15;;;1.70;;
46551;SDS011;32278;51.810;4.712;2023-07-29T11:55:53;3.97;;;2.35;;
46551;SDS011;32278;51.810;4.712;2023-07-29T11:58:20;4.18;;;2.10;;
46551;SDS011;32278;51.810;4.712;2023-07-29T12:00:46;2.85;;;2.13;;
46551;SDS011;32278;51.810;4.712;2023-07-29T12:03:12;4.15;;;2.63;;
46551;SDS011;32278;51.810;4.712;2023-07-29T12:05:40;3.60;;;2.20;;
46551;SDS011;32278;51.810;4.712;2023-07-29T12:08:06;6.47;;;2.97;;
46551;SDS011;32278;51.810;4.712;2023-07-29T12:10:34;3.80;;;2.42;;
46551;SDS011;32278;51.810;4.712;2023-07-29T12:13:01;2.70;;;2.45;;
46551;SDS011;32278;51.810;4.712;2023-07-29T12:15:28;2.97;;;2.13;;
46551;SDS011;32278;51.810;4.712;2023-07-29T12:17:58;3.63;;;2.72;;
46551;SDS011;32278;51.810;4.712;2023-07-29T12:20:25;3.88;;;2.60;;
46551;SDS011;32278;51.810;4.712;2023-07-29T12:22:52;3.35;;;2.47;;
46551;SDS011;32278;51.810;4.712;2023-07-29T12:25:18;3.25;;;2.17;;
46551;SDS011;32278;51.810;4.712;2023-07-29T12:27:44;4.18;;;2.50;;
46551;SDS011;32278;51.810;4.712;2023-07-29T12:30:10;2.47;;;2.28;;
46551;SDS011;32278;51.810;4.712;2023-07-29T12:32:43;3.25;;;2.17;;
46551;SDS011;32278;51.810;4.712;2023-07-29T12:35:09;5.85;;;2.42;;
46551;SDS011;32278;51.810;4.712;2023-07-29T12:37:35;2.45;;;2.20;;
46551;SDS011;32278;51.810;4.712;2023-07-29T12:40:03;5.35;;;2.20;;
46551;SDS011;32278;51.810;4.712;2023-07-29T12:42:30;3.55;;;1.90;;
46551;SDS011;32278;51.810;4.712;2023-07-29T12:44:55;4.97;;;2.35;;
46551;SDS011;32278;51.810;4.712;2023-07-29T12:47:21;3.88;;;2.40;;
46551;SDS011;32278;51.810;4.712;2023-07-29T12:49:47;2.78;;;2.00;;
46551;SDS011;32278;51.810;4.712;2023-07-29T12:52:13;4.57;;;2.47;;
46551;SDS011;32278;51.810;4.712;2023-07-29T12:54:40;2.55;;;1.90;;
46551;SDS011;32278;51.810;4.712;2023-07-29T12:57:09;2.55;;;1.77;;
46551;SDS011;32278;51.810;4.712;2023-07-29T12:59:35;4.65;;;1.80;;
46551;SDS011;32278;51.810;4.712;2023-07-29T13:02:00;1.98;;;1.45;;
46551;SDS011;32278;51.810;4.712;2023-07-29T13:04:26;2.08;;;1.80;;
46551;SDS011;32278;51.810;4.712;2023-07-29T13:06:52;3.38;;;1.75;;
46551;SDS011;32278;51.810;4.712;2023-07-29T13:09:18;2.78;;;1.27;;
46551;SDS011;32278;51.810;4.712;2023-07-29T13:11:44;4.30;;;1.25;;
46551;SDS011;32278;51.810;4.712;2023-07-29T13:14:10;2.85;;;1.17;;
46551;SDS011;32278;51.810;4.712;2023-07-29T13:16:37;1.67;;;1.52;;
46551;SDS011;32278;51.810;4.712;2023-07-29T13:19:03;4.07;;;1.52;;
46551;SDS011;32278;51.810;4.712;2023-07-29T13:21:29;2.42;;;1.50;;
46551;SDS011;32278;51.810;4.712;2023-07-29T13:23:54;5.38;;;1.67;;
46551;SDS011;32278;51.810;4.712;2023-07-29T13:26:20;3.22;;;1.88;;
46551;SDS011;32278;51.810;4.712;2023-07-29T13:28:46;4.28;;;1.45;;
46551;SDS011;32278;51.810;4.712;2023-07-29T13:31:12;4.90;;;1.98;;
46551;SDS011;32278;51.810;4.712;2023-07-29T13:33:38;1.75;;;1.15;;
46551;SDS011;32278;51.810;4.712;2023-07-29T13:36:05;1.23;;;1.13;;
46551;SDS011;32278;51.810;4.712;2023-07-29T13:38:33;2.70;;;1.00;;
46551;SDS011;32278;51.810;4.712;2023-07-29T13:40:59;2.72;;;0.90;;
46551;SDS011;32278;51.810;4.712;2023-07-29T13:43:25;1.38;;;1.00;;
46551;SDS011;32278;51.810;4.712;2023-07-29T13:45:51;2.38;;;1.42;;
46551;SDS011;32278;51.810;4.712;2023-07-29T13:48:17;1.05;;;0.95;;
46551;SDS011;32278;51.810;4.712;2023-07-29T13:50:43;0.93;;;0.80;;
46551;SDS011;32278;51.810;4.712;2023-07-29T13:53:09;1.48;;;0.88;;
46551;SDS011;32278;51.810;4.712;2023-07-29T13:55:35;4.20;;;1.10;;
46551;SDS011;32278;51.810;4.712;2023-07-29T13:58:01;2.65;;;1.02;;
46551;SDS011;32278;51.810;4.712;2023-07-29T14:00:27;2.67;;;0.80;;
46551;SDS011;32278;51.810;4.712;2023-07-29T14:02:53;4.15;;;1.00;;
46551;SDS011;32278;51.810;4.712;2023-07-29T14:05:19;2.20;;;1.10;;
46551;SDS011;32278;51.810;4.712;2023-07-29T14:07:45;1.92;;;0.88;;
46551;SDS011;32278;51.810;4.712;2023-07-29T14:10:11;2.30;;;1.00;;
46551;SDS011;32278;51.810;4.712;2023-07-29T14:12:37;2.72;;;1.10;;
46551;SDS011;32278;51.810;4.712;2023-07-29T14:15:04;4.32;;;1.08;;
46551;SDS011;32278;51.810;4.712;2023-07-29T14:17:31;3.95;;;1.20;;
46551;SDS011;32278;51.810;4.712;2023-07-29T14:19:57;2.90;;;1.13;;
46551;SDS011;32278;51.810;4.712;2023-07-29T14:22:23;1.83;;;1.30;;
46551;SDS011;32278;51.810;4.712;2023-07-29T14:24:49;3.55;;;1.27;;
46551;SDS011;32278;51.810;4.712;2023-07-29T14:27:15;3.08;;;1.60;;
46551;SDS011;32278;51.810;4.712;2023-07-29T14:29:41;3.63;;;1.92;;
46551;SDS011;32278;51.810;4.712;2023-07-29T14:32:07;3.67;;;1.70;;
46551;SDS011;32278;51.810;4.712;2023-07-29T14:34:33;3.67;;;2.00;;
46551;SDS011;32278;51.810;4.712;2023-07-29T14:36:59;2.95;;;1.60;;
46551;SDS011;32278;51.810;4.712;2023-07-29T14:39:25;6.07;;;2.10;;
46551;SDS011;32278;51.810;4.712;2023-07-29T14:41:51;2.30;;;1.92;;
46551;SDS011;32278;51.810;4.712;2023-07-29T14:44:17;3.88;;;1.48;;
46551;SDS011;32278;51.810;4.712;2023-07-29T14:46:43;3.65;;;2.30;;
46551;SDS011;32278;51.810;4.712;2023-07-29T14:49:09;9.80;;;4.13;;
46551;SDS011;32278;51.810;4.712;2023-07-29T14:51:35;11.32;;;4.80;;
46551;SDS011;32278;51.810;4.712;2023-07-29T14:54:02;9.70;;;5.03;;
46551;SDS011;32278;51.810;4.712;2023-07-29T14:56:28;9.80;;;4.40;;
46551;SDS011;32278;51.810;4.712;2023-07-29T14:58:54;8.50;;;4.93;;